sensor_id;sensor_type;location;lat;lon;timestamp;P1;durP1;ratioP1;P2;durP2;ratioP2
67146;SDS011;54061;52.036;5.558;2023-04-24T00:02:08;0.43;;;0.30;;
67146;SDS011;54061;52.036;5.558;2023-04-24T00:04:36;0.75;;;0.32;;
67146;SDS011;54061;52.036;5.558;2023-04-24T00:07:05;1.63;;;0.40;;
67146;SDS011;54061;52.036;5.558;2023-04-24T00:09:31;0.43;;;0.40;;
67146;SDS011;54061;52.036;5.558;2023-04-24T00:11:57;1.25;;;0.50;;
67146;SDS011;54061;52.036;5.558;2023-04-24T00:14:23;0.45;;;0.45;;
67146;SDS011;54061;52.036;5.558;2023-04-24T00:16:49;0.60;;;0.22;;
67146;SDS011;54061;52.036;5.558;2023-04-24T00:19:14;0.35;;;0.30;;
67146;SDS011;54061;52.036;5.558;2023-04-24T00:21:40;0.70;;;0.30;;
67146;SDS011;54061;52.036;5.558;2023-04-24T00:24:06;0.93;;;0.38;;
67146;SDS011;54061;52.036;5.558;2023-04-24T00:26:34;0.77;;;0.40;;
67146;SDS011;54061;52.036;5.558;2023-04-24T00:28:59;0.30;;;0.30;;
67146;SDS011;54061;52.036;5.558;2023-04-24T00:31:25;0.70;;;0.38;;
67146;SDS011;54061;52.036;5.558;2023-04-24T00:33:50;0.80;;;0.35;;
67146;SDS011;54061;52.036;5.558;2023-04-24T00:36:16;0.45;;;0.30;;
67146;SDS011;54061;52.036;5.558;2023-04-24T00:38:44;1.92;;;0.30;;
67146;SDS011;54061;52.036;5.558;2023-04-24T00:41:09;0.73;;;0.50;;
67146;SDS011;54061;52.036;5.558;2023-04-24T00:43:35;1.50;;;0.50;;
67146;SDS011;54061;52.036;5.558;2023-04-24T00:46:00;0.55;;;0.30;;
67146;SDS011;54061;52.036;5.558;2023-04-24T00:48:26;0.57;;;0.30;;
67146;SDS011;54061;52.036;5.558;2023-04-24T00:50:53;0.45;;;0.30;;
67146;SDS011;54061;52.036;5.558;2023-04-24T00:53:18;0.47;;;0.25;;
67146;SDS011;54061;52.036;5.558;2023-04-24T00:55:44;0.80;;;0.38;;
67146;SDS011;54061;52.036;5.558;2023-04-24T00:58:10;0.82;;;0.30;;
67146;SDS011;54061;52.036;5.558;2023-04-24T01:00:36;0.35;;;0.25;;
67146;SDS011;54061;52.036;5.558;2023-04-24T01:03:02;0.85;;;0.20;;
67146;SDS011;54061;52.036;5.558;2023-04-24T01:05:29;0.45;;;0.30;;
67146;SDS011;54061;52.036;5.558;2023-04-24T01:07:55;0.50;;;0.30;;
67146;SDS011;54061;52.036;5.558;2023-04-24T01:10:21;0.30;;;0.30;;
67146;SDS011;54061;52.036;5.558;2023-04-24T01:12:49;0.30;;;0.30;;
67146;SDS011;54061;52.036;5.558;2023-04-24T01:15:15;0.43;;;0.30;;
67146;SDS011;54061;52.036;5.558;2023-04-24T01:17:41;0.10;;;0.10;;
67146;SDS011;54061;52.036;5.558;2023-04-24T01:20:06;0.45;;;0.30;;
67146;SDS011;54061;52.036;5.558;2023-04-24T01:22:35;1.42;;;0.30;;
67146;SDS011;54061;52.036;5.558;2023-04-24T01:25:01;0.30;;;0.30;;
67146;SDS011;54061;52.036;5.558;2023-04-24T01:27:27;0.50;;;0.30;;
67146;SDS011;54061;52.036;5.558;2023-04-24T01:29:53;0.57;;;0.25;;
67146;SDS011;54061;52.036;5.558;2023-04-24T01:32:18;0.50;;;0.30;;
67146;SDS011;54061;52.036;5.558;2023-04-24T01:34:45;0.20;;;0.20;;
67146;SDS011;54061;52.036;5.558;2023-04-24T01:37:11;0.17;;;0.15;;
67146;SDS011;54061;52.036;5.558;2023-04-24T01:39:37;0.85;;;0.30;;
67146;SDS011;54061;52.036;5.558;2023-04-24T01:42:03;0.30;;;0.30;;
67146;SDS011;54061;52.036;5.558;2023-04-24T01:44:30;0.30;;;0.30;;
67146;SDS011;54061;52.036;5.558;2023-04-24T01:46:55;0.30;;;0.20;;
67146;SDS011;54061;52.036;5.558;2023-04-24T01:49:21;0.82;;;0.30;;
67146;SDS011;54061;52.036;5.558;2023-04-24T01:51:47;0.40;;;0.20;;
67146;SDS011;54061;52.036;5.558;2023-04-24T01:54:13;0.30;;;0.30;;
67146;SDS011;54061;52.036;5.558;2023-04-24T01:56:42;0.20;;;0.20;;
67146;SDS011;54061;52.036;5.558;2023-04-24T01:59:09;0.20;;;0.20;;
67146;SDS011;54061;52.036;5.558;2023-04-24T02:01:36;0.25;;;0.25;;
67146;SDS011;54061;52.036;5.558;2023-04-24T02:04:03;0.20;;;0.20;;
67146;SDS011;54061;52.036;5.558;2023-04-24T02:06:29;1.00;;;0.30;;
67146;SDS011;54061;52.036;5.558;2023-04-24T02:08:56;0.10;;;0.10;;
67146;SDS011;54061;52.036;5.558;2023-04-24T02:11:25;1.40;;;0.30;;
67146;SDS011;54061;52.036;5.558;2023-04-24T02:13:51;0.22;;;0.22;;
67146;SDS011;54061;52.036;5.558;2023-04-24T02:16:17;0.28;;;0.28;;
67146;SDS011;54061;52.036;5.558;2023-04-24T02:18:42;0.32;;;0.25;;
67146;SDS011;54061;52.036;5.558;2023-04-24T02:21:08;1.15;;;0.20;;
67146;SDS011;54061;52.036;5.558;2023-04-24T02:23:34;0.90;;;0.40;;
67146;SDS011;54061;52.036;5.558;2023-04-24T02:25:59;0.30;;;0.30;;
67146;SDS011;54061;52.036;5.558;2023-04-24T02:28:25;0.35;;;0.35;;
67146;SDS011;54061;52.036;5.558;2023-04-24T02:30:50;0.20;;;0.20;;
67146;SDS011;54061;52.036;5.558;2023-04-24T02:33:16;0.40;;;0.40;;
67146;SDS011;54061;52.036;5.558;2023-04-24T02:35:42;0.80;;;0.40;;
67146;SDS011;54061;52.036;5.558;2023-04-24T02:38:07;0.40;;;0.40;;
67146;SDS011;54061;52.036;5.558;2023-04-24T02:40:33;1.20;;;0.40;;
67146;SDS011;54061;52.036;5.558;2023-04-24T02:42:58;0.32;;;0.30;;
67146;SDS011;54061;52.036;5.558;2023-04-24T02:45:24;1.50;;;0.40;;
67146;SDS011;54061;52.036;5.558;2023-04-24T02:47:49;0.60;;;0.40;;
67146;SDS011;54061;52.036;5.558;2023-04-24T02:50:15;1.27;;;0.70;;
67146;SDS011;54061;52.036;5.558;2023-04-24T02:52:40;0.50;;;0.50;;
67146;SDS011;54061;52.036;5.558;2023-04-24T02:55:06;0.40;;;0.40;;
67146;SDS011;54061;52.036;5.558;2023-04-24T02:57:33;0.98;;;0.40;;
67146;SDS011;54061;52.036;5.558;2023-04-24T02:59:58;0.57;;;0.40;;
67146;SDS011;54061;52.036;5.558;2023-04-24T03:02:24;0.43;;;0.40;;
67146;SDS011;54061;52.036;5.558;2023-04-24T03:04:50;0.57;;;0.40;;
67146;SDS011;54061;52.036;5.558;2023-04-24T03:07:15;0.85;;;0.60;;
67146;SDS011;54061;52.036;5.558;2023-04-24T03:09:41;0.45;;;0.45;;
67146;SDS011;54061;52.036;5.558;2023-04-24T03:12:07;0.57;;;0.50;;
67146;SDS011;54061;52.036;5.558;2023-04-24T03:14:32;0.63;;;0.50;;
67146;SDS011;54061;52.036;5.558;2023-04-24T03:16:58;0.40;;;0.40;;
67146;SDS011;54061;52.036;5.558;2023-04-24T03:19:24;0.52;;;0.50;;
67146;SDS011;54061;52.036;5.558;2023-04-24T03:21:49;0.63;;;0.60;;
67146;SDS011;54061;52.036;5.558;2023-04-24T03:24:15;1.13;;;0.68;;
67146;SDS011;54061;52.036;5.558;2023-04-24T03:26:40;0.57;;;0.57;;
67146;SDS011;54061;52.036;5.558;2023-04-24T03:29:06;0.70;;;0.65;;
67146;SDS011;54061;52.036;5.558;2023-04-24T03:31:32;1.00;;;0.70;;
67146;SDS011;54061;52.036;5.558;2023-04-24T03:33:57;0.60;;;0.60;;
67146;SDS011;54061;52.036;5.558;2023-04-24T03:36:23;0.70;;;0.70;;
67146;SDS011;54061;52.036;5.558;2023-04-24T03:38:48;1.95;;;0.73;;
67146;SDS011;54061;52.036;5.558;2023-04-24T03:41:14;0.57;;;0.57;;
67146;SDS011;54061;52.036;5.558;2023-04-24T03:43:39;0.73;;;0.73;;
67146;SDS011;54061;52.036;5.558;2023-04-24T03:46:05;0.57;;;0.57;;
67146;SDS011;54061;52.036;5.558;2023-04-24T03:48:30;0.80;;;0.70;;
67146;SDS011;54061;52.036;5.558;2023-04-24T03:50:56;1.58;;;0.90;;
67146;SDS011;54061;52.036;5.558;2023-04-24T03:53:21;1.10;;;0.90;;
67146;SDS011;54061;52.036;5.558;2023-04-24T03:55:47;1.30;;;1.08;;
67146;SDS011;54061;52.036;5.558;2023-04-24T03:58:13;2.10;;;1.10;;
67146;SDS011;54061;52.036;5.558;2023-04-24T04:00:42;1.77;;;1.08;;
67146;SDS011;54061;52.036;5.558;2023-04-24T04:03:09;1.55;;;1.10;;
67146;SDS011;54061;52.036;5.558;2023-04-24T04:05:34;1.95;;;1.10;;
67146;SDS011;54061;52.036;5.558;2023-04-24T04:08:00;1.23;;;1.02;;
67146;SDS011;54061;52.036;5.558;2023-04-24T04:10:25;2.00;;;1.25;;
67146;SDS011;54061;52.036;5.558;2023-04-24T04:12:51;1.58;;;1.08;;
67146;SDS011;54061;52.036;5.558;2023-04-24T04:15:16;2.05;;;1.25;;
67146;SDS011;54061;52.036;5.558;2023-04-24T04:17:42;1.40;;;1.30;;
67146;SDS011;54061;52.036;5.558;2023-04-24T04:20:08;2.30;;;1.33;;
67146;SDS011;54061;52.036;5.558;2023-04-24T04:22:36;2.42;;;1.20;;
67146;SDS011;54061;52.036;5.558;2023-04-24T04:25:02;1.83;;;1.00;;
67146;SDS011;54061;52.036;5.558;2023-04-24T04:27:29;1.33;;;1.00;;
67146;SDS011;54061;52.036;5.558;2023-04-24T04:29:57;1.58;;;1.00;;
67146;SDS011;54061;52.036;5.558;2023-04-24T04:32:26;0.80;;;0.80;;
67146;SDS011;54061;52.036;5.558;2023-04-24T04:34:52;1.00;;;0.90;;
67146;SDS011;54061;52.036;5.558;2023-04-24T04:37:18;0.93;;;0.80;;
67146;SDS011;54061;52.036;5.558;2023-04-24T04:39:43;1.02;;;0.90;;
67146;SDS011;54061;52.036;5.558;2023-04-24T04:42:09;0.70;;;0.70;;
67146;SDS011;54061;52.036;5.558;2023-04-24T04:44:35;2.10;;;0.70;;
67146;SDS011;54061;52.036;5.558;2023-04-24T04:47:01;0.70;;;0.70;;
67146;SDS011;54061;52.036;5.558;2023-04-24T04:49:30;0.68;;;0.57;;
67146;SDS011;54061;52.036;5.558;2023-04-24T04:51:56;2.15;;;0.77;;
67146;SDS011;54061;52.036;5.558;2023-04-24T04:54:22;0.80;;;0.60;;
67146;SDS011;54061;52.036;5.558;2023-04-24T04:56:49;1.10;;;1.00;;
67146;SDS011;54061;52.036;5.558;2023-04-24T04:59:15;0.80;;;0.80;;
67146;SDS011;54061;52.036;5.558;2023-04-24T05:01:41;1.15;;;0.80;;
67146;SDS011;54061;52.036;5.558;2023-04-24T05:04:06;1.88;;;0.80;;
67146;SDS011;54061;52.036;5.558;2023-04-24T05:06:32;1.40;;;0.77;;
67146;SDS011;54061;52.036;5.558;2023-04-24T05:08:57;1.25;;;0.75;;
67146;SDS011;54061;52.036;5.558;2023-04-24T05:11:23;1.27;;;0.75;;
67146;SDS011;54061;52.036;5.558;2023-04-24T05:13:49;0.60;;;0.60;;
67146;SDS011;54061;52.036;5.558;2023-04-24T05:16:14;1.55;;;0.70;;
67146;SDS011;54061;52.036;5.558;2023-04-24T05:18:40;0.63;;;0.63;;
67146;SDS011;54061;52.036;5.558;2023-04-24T05:21:06;1.55;;;0.70;;
67146;SDS011;54061;52.036;5.558;2023-04-24T05:23:31;2.72;;;0.63;;
67146;SDS011;54061;52.036;5.558;2023-04-24T05:25:57;0.60;;;0.60;;
67146;SDS011;54061;52.036;5.558;2023-04-24T05:28:22;1.05;;;0.63;;
67146;SDS011;54061;52.036;5.558;2023-04-24T05:30:48;0.70;;;0.60;;
67146;SDS011;54061;52.036;5.558;2023-04-24T05:33:13;0.85;;;0.60;;
67146;SDS011;54061;52.036;5.558;2023-04-24T05:35:40;1.00;;;0.60;;
67146;SDS011;54061;52.036;5.558;2023-04-24T05:38:10;0.87;;;0.50;;
67146;SDS011;54061;52.036;5.558;2023-04-24T05:40:36;1.05;;;0.70;;
67146;SDS011;54061;52.036;5.558;2023-04-24T05:43:02;0.60;;;0.50;;
67146;SDS011;54061;52.036;5.558;2023-04-24T05:45:27;1.08;;;0.50;;
67146;SDS011;54061;52.036;5.558;2023-04-24T05:47:53;0.98;;;0.50;;
67146;SDS011;54061;52.036;5.558;2023-04-24T05:50:18;0.75;;;0.57;;
67146;SDS011;54061;52.036;5.558;2023-04-24T05:52:44;0.73;;;0.70;;
67146;SDS011;54061;52.036;5.558;2023-04-24T05:55:09;0.60;;;0.40;;
67146;SDS011;54061;52.036;5.558;2023-04-24T05:57:35;0.60;;;0.60;;
67146;SDS011;54061;52.036;5.558;2023-04-24T06:00:00;0.73;;;0.40;;
67146;SDS011;54061;52.036;5.558;2023-04-24T06:02:26;0.85;;;0.60;;
67146;SDS011;54061;52.036;5.558;2023-04-24T06:04:52;0.60;;;0.50;;
67146;SDS011;54061;52.036;5.558;2023-04-24T06:07:18;0.43;;;0.43;;
67146;SDS011;54061;52.036;5.558;2023-04-24T06:09:43;3.53;;;0.50;;
67146;SDS011;54061;52.036;5.558;2023-04-24T06:12:09;1.13;;;0.40;;
67146;SDS011;54061;52.036;5.558;2023-04-24T06:14:34;1.95;;;0.50;;
67146;SDS011;54061;52.036;5.558;2023-04-24T06:17:00;0.40;;;0.40;;
67146;SDS011;54061;52.036;5.558;2023-04-24T06:19:25;0.63;;;0.40;;
67146;SDS011;54061;52.036;5.558;2023-04-24T06:21:51;0.52;;;0.40;;
67146;SDS011;54061;52.036;5.558;2023-04-24T06:24:16;0.77;;;0.52;;
67146;SDS011;54061;52.036;5.558;2023-04-24T06:26:42;0.47;;;0.47;;
67146;SDS011;54061;52.036;5.558;2023-04-24T06:29:08;1.55;;;0.47;;
67146;SDS011;54061;52.036;5.558;2023-04-24T06:31:33;0.98;;;0.55;;
67146;SDS011;54061;52.036;5.558;2023-04-24T06:34:02;0.40;;;0.40;;
67146;SDS011;54061;52.036;5.558;2023-04-24T06:36:28;1.00;;;0.60;;
67146;SDS011;54061;52.036;5.558;2023-04-24T06:38:53;0.50;;;0.50;;
67146;SDS011;54061;52.036;5.558;2023-04-24T06:41:19;0.50;;;0.50;;
67146;SDS011;54061;52.036;5.558;2023-04-24T06:43:45;0.57;;;0.43;;
67146;SDS011;54061;52.036;5.558;2023-04-24T06:46:10;0.47;;;0.47;;
67146;SDS011;54061;52.036;5.558;2023-04-24T06:48:36;3.17;;;0.43;;
67146;SDS011;54061;52.036;5.558;2023-04-24T06:51:02;1.00;;;0.70;;
67146;SDS011;54061;52.036;5.558;2023-04-24T06:53:28;0.95;;;0.50;;
67146;SDS011;54061;52.036;5.558;2023-04-24T06:55:53;1.20;;;0.50;;
67146;SDS011;54061;52.036;5.558;2023-04-24T06:58:19;0.55;;;0.50;;
67146;SDS011;54061;52.036;5.558;2023-04-24T07:00:45;0.70;;;0.40;;
67146;SDS011;54061;52.036;5.558;2023-04-24T07:03:11;0.60;;;0.40;;
67146;SDS011;54061;52.036;5.558;2023-04-24T07:05:36;0.95;;;0.60;;
67146;SDS011;54061;52.036;5.558;2023-04-24T07:08:03;0.93;;;0.40;;
67146;SDS011;54061;52.036;5.558;2023-04-24T07:10:28;0.73;;;0.60;;
67146;SDS011;54061;52.036;5.558;2023-04-24T07:12:55;1.92;;;0.57;;
67146;SDS011;54061;52.036;5.558;2023-04-24T07:15:21;0.47;;;0.47;;
67146;SDS011;54061;52.036;5.558;2023-04-24T07:17:48;0.50;;;0.50;;
67146;SDS011;54061;52.036;5.558;2023-04-24T07:20:13;0.50;;;0.50;;
67146;SDS011;54061;52.036;5.558;2023-04-24T07:22:39;0.70;;;0.50;;
67146;SDS011;54061;52.036;5.558;2023-04-24T07:25:05;0.80;;;0.47;;
67146;SDS011;54061;52.036;5.558;2023-04-24T07:27:32;1.80;;;0.60;;
67146;SDS011;54061;52.036;5.558;2023-04-24T07:29:58;0.65;;;0.60;;
67146;SDS011;54061;52.036;5.558;2023-04-24T07:32:24;0.77;;;0.70;;
67146;SDS011;54061;52.036;5.558;2023-04-24T07:34:49;0.73;;;0.65;;
67146;SDS011;54061;52.036;5.558;2023-04-24T07:37:15;1.15;;;0.70;;
67146;SDS011;54061;52.036;5.558;2023-04-24T07:39:40;1.67;;;0.60;;
67146;SDS011;54061;52.036;5.558;2023-04-24T07:42:06;2.63;;;0.63;;
67146;SDS011;54061;52.036;5.558;2023-04-24T07:44:31;1.25;;;0.85;;
67146;SDS011;54061;52.036;5.558;2023-04-24T07:46:57;1.85;;;0.88;;
67146;SDS011;54061;52.036;5.558;2023-04-24T07:49:22;1.00;;;0.90;;
67146;SDS011;54061;52.036;5.558;2023-04-24T07:51:48;1.00;;;0.80;;
67146;SDS011;54061;52.036;5.558;2023-04-24T07:54:14;1.10;;;0.70;;
67146;SDS011;54061;52.036;5.558;2023-04-24T07:56:40;2.25;;;0.93;;
67146;SDS011;54061;52.036;5.558;2023-04-24T07:59:07;1.63;;;1.10;;
67146;SDS011;54061;52.036;5.558;2023-04-24T08:01:35;2.20;;;1.00;;
67146;SDS011;54061;52.036;5.558;2023-04-24T08:04:00;1.90;;;1.10;;
67146;SDS011;54061;52.036;5.558;2023-04-24T08:06:26;1.67;;;1.05;;
67146;SDS011;54061;52.036;5.558;2023-04-24T08:08:56;2.70;;;1.23;;
67146;SDS011;54061;52.036;5.558;2023-04-24T08:11:23;2.08;;;1.00;;
67146;SDS011;54061;52.036;5.558;2023-04-24T08:13:49;3.67;;;1.33;;
67146;SDS011;54061;52.036;5.558;2023-04-24T08:16:15;1.48;;;1.10;;
67146;SDS011;54061;52.036;5.558;2023-04-24T08:18:40;2.20;;;1.40;;
67146;SDS011;54061;52.036;5.558;2023-04-24T08:21:06;2.67;;;1.33;;
67146;SDS011;54061;52.036;5.558;2023-04-24T08:23:31;1.85;;;1.30;;
67146;SDS011;54061;52.036;5.558;2023-04-24T08:25:57;2.03;;;1.10;;
67146;SDS011;54061;52.036;5.558;2023-04-24T08:28:22;1.40;;;1.30;;
67146;SDS011;54061;52.036;5.558;2023-04-24T08:30:48;2.67;;;1.40;;
67146;SDS011;54061;52.036;5.558;2023-04-24T08:33:19;1.92;;;1.40;;
67146;SDS011;54061;52.036;5.558;2023-04-24T08:35:48;2.80;;;1.20;;
67146;SDS011;54061;52.036;5.558;2023-04-24T08:38:13;1.77;;;1.52;;
67146;SDS011;54061;52.036;5.558;2023-04-24T08:40:39;3.65;;;1.25;;
67146;SDS011;54061;52.036;5.558;2023-04-24T08:43:05;5.50;;;1.40;;
67146;SDS011;54061;52.036;5.558;2023-04-24T08:45:31;4.03;;;1.40;;
67146;SDS011;54061;52.036;5.558;2023-04-24T08:47:58;1.63;;;1.38;;
67146;SDS011;54061;52.036;5.558;2023-04-24T08:50:24;3.30;;;1.33;;
67146;SDS011;54061;52.036;5.558;2023-04-24T08:52:51;2.88;;;1.30;;
67146;SDS011;54061;52.036;5.558;2023-04-24T08:55:21;3.85;;;1.35;;
67146;SDS011;54061;52.036;5.558;2023-04-24T08:57:50;2.17;;;1.10;;
67146;SDS011;54061;52.036;5.558;2023-04-24T09:00:18;2.50;;;1.27;;
67146;SDS011;54061;52.036;5.558;2023-04-24T09:02:47;3.22;;;1.65;;
67146;SDS011;54061;52.036;5.558;2023-04-24T09:05:16;3.20;;;1.30;;
67146;SDS011;54061;52.036;5.558;2023-04-24T09:07:43;2.80;;;1.10;;
67146;SDS011;54061;52.036;5.558;2023-04-24T09:10:11;3.95;;;1.35;;
67146;SDS011;54061;52.036;5.558;2023-04-24T09:12:37;3.90;;;1.20;;
67146;SDS011;54061;52.036;5.558;2023-04-24T09:15:03;2.53;;;1.42;;
67146;SDS011;54061;52.036;5.558;2023-04-24T09:17:30;1.70;;;1.30;;
67146;SDS011;54061;52.036;5.558;2023-04-24T09:19:55;3.03;;;1.02;;
67146;SDS011;54061;52.036;5.558;2023-04-24T09:22:21;3.05;;;1.20;;
67146;SDS011;54061;52.036;5.558;2023-04-24T09:24:47;4.85;;;1.08;;
67146;SDS011;54061;52.036;5.558;2023-04-24T09:27:13;3.83;;;1.70;;
67146;SDS011;54061;52.036;5.558;2023-04-24T09:29:45;2.28;;;0.98;;
67146;SDS011;54061;52.036;5.558;2023-04-24T09:32:21;4.10;;;1.10;;
67146;SDS011;54061;52.036;5.558;2023-04-24T09:35:04;6.13;;;1.20;;
67146;SDS011;54061;52.036;5.558;2023-04-24T09:37:40;4.00;;;1.40;;
67146;SDS011;54061;52.036;5.558;2023-04-24T09:42:44;3.22;;;1.33;;
67146;SDS011;54061;52.036;5.558;2023-04-24T09:45:11;3.05;;;1.38;;
67146;SDS011;54061;52.036;5.558;2023-04-24T09:47:37;2.20;;;1.10;;
67146;SDS011;54061;52.036;5.558;2023-04-24T09:50:11;1.83;;;0.98;;
67146;SDS011;54061;52.036;5.558;2023-04-24T09:52:44;2.75;;;1.08;;
67146;SDS011;54061;52.036;5.558;2023-04-24T09:55:12;3.65;;;1.35;;
67146;SDS011;54061;52.036;5.558;2023-04-24T09:57:47;1.67;;;0.95;;
67146;SDS011;54061;52.036;5.558;2023-04-24T10:00:17;4.03;;;1.30;;
67146;SDS011;54061;52.036;5.558;2023-04-24T10:02:44;5.00;;;1.30;;
67146;SDS011;54061;52.036;5.558;2023-04-24T10:05:11;3.05;;;1.33;;
67146;SDS011;54061;52.036;5.558;2023-04-24T10:07:37;1.50;;;1.15;;
67146;SDS011;54061;52.036;5.558;2023-04-24T10:10:03;6.65;;;1.42;;
67146;SDS011;54061;52.036;5.558;2023-04-24T10:12:29;4.45;;;1.30;;
67146;SDS011;54061;52.036;5.558;2023-04-24T10:14:55;3.65;;;1.20;;
67146;SDS011;54061;52.036;5.558;2023-04-24T10:17:22;3.00;;;1.38;;
67146;SDS011;54061;52.036;5.558;2023-04-24T10:19:49;2.72;;;1.08;;
67146;SDS011;54061;52.036;5.558;2023-04-24T10:22:16;3.47;;;1.10;;
67146;SDS011;54061;52.036;5.558;2023-04-24T10:24:42;2.70;;;0.82;;
67146;SDS011;54061;52.036;5.558;2023-04-24T10:27:09;2.40;;;1.13;;
67146;SDS011;54061;52.036;5.558;2023-04-24T10:29:34;3.05;;;1.10;;
67146;SDS011;54061;52.036;5.558;2023-04-24T10:32:00;2.80;;;1.20;;
67146;SDS011;54061;52.036;5.558;2023-04-24T10:34:26;3.45;;;1.10;;
67146;SDS011;54061;52.036;5.558;2023-04-24T10:36:53;2.83;;;1.40;;
67146;SDS011;54061;52.036;5.558;2023-04-24T10:39:20;2.58;;;1.00;;
67146;SDS011;54061;52.036;5.558;2023-04-24T10:41:48;4.05;;;1.45;;
67146;SDS011;54061;52.036;5.558;2023-04-24T10:44:14;3.53;;;1.20;;
67146;SDS011;54061;52.036;5.558;2023-04-24T10:46:46;3.45;;;1.30;;
67146;SDS011;54061;52.036;5.558;2023-04-24T10:49:18;2.08;;;1.20;;
67146;SDS011;54061;52.036;5.558;2023-04-24T10:51:59;3.38;;;1.27;;
67146;SDS011;54061;52.036;5.558;2023-04-24T10:54:27;7.18;;;1.30;;
67146;SDS011;54061;52.036;5.558;2023-04-24T10:59:47;2.65;;;1.00;;
67146;SDS011;54061;52.036;5.558;2023-04-24T11:02:14;3.42;;;1.17;;
67146;SDS011;54061;52.036;5.558;2023-04-24T11:04:40;5.47;;;1.30;;
67146;SDS011;54061;52.036;5.558;2023-04-24T11:07:08;5.18;;;1.00;;
67146;SDS011;54061;52.036;5.558;2023-04-24T11:09:34;2.38;;;0.90;;
67146;SDS011;54061;52.036;5.558;2023-04-24T11:15:21;2.78;;;0.95;;
67146;SDS011;54061;52.036;5.558;2023-04-24T11:17:34;3.33;;;1.13;;
67146;SDS011;54061;52.036;5.558;2023-04-24T11:20:06;2.72;;;1.02;;
67146;SDS011;54061;52.036;5.558;2023-04-24T11:22:34;3.90;;;0.90;;
67146;SDS011;54061;52.036;5.558;2023-04-24T11:25:01;2.83;;;1.00;;
67146;SDS011;54061;52.036;5.558;2023-04-24T11:27:29;2.65;;;0.98;;
67146;SDS011;54061;52.036;5.558;2023-04-24T11:37:29;4.05;;;0.90;;
67146;SDS011;54061;52.036;5.558;2023-04-24T11:39:58;3.03;;;0.70;;
67146;SDS011;54061;52.036;5.558;2023-04-24T11:42:24;1.58;;;0.70;;
67146;SDS011;54061;52.036;5.558;2023-04-24T11:44:51;1.38;;;0.80;;
67146;SDS011;54061;52.036;5.558;2023-04-24T11:47:18;1.45;;;0.70;;
67146;SDS011;54061;52.036;5.558;2023-04-24T11:49:43;1.67;;;0.90;;
67146;SDS011;54061;52.036;5.558;2023-04-24T11:52:09;3.10;;;1.00;;
67146;SDS011;54061;52.036;5.558;2023-04-24T11:54:35;3.35;;;0.98;;
67146;SDS011;54061;52.036;5.558;2023-04-24T11:57:03;3.03;;;1.08;;
67146;SDS011;54061;52.036;5.558;2023-04-24T11:59:34;2.83;;;1.05;;
67146;SDS011;54061;52.036;5.558;2023-04-24T12:02:01;3.17;;;1.08;;
67146;SDS011;54061;52.036;5.558;2023-04-24T12:04:27;2.25;;;0.95;;
67146;SDS011;54061;52.036;5.558;2023-04-24T12:07:06;5.03;;;0.90;;
67146;SDS011;54061;52.036;5.558;2023-04-24T12:10:06;7.93;;;1.00;;
67146;SDS011;54061;52.036;5.558;2023-04-24T12:12:26;3.17;;;1.00;;
67146;SDS011;54061;52.036;5.558;2023-04-24T12:14:53;2.53;;;0.82;;
67146;SDS011;54061;52.036;5.558;2023-04-24T12:17:30;2.47;;;1.00;;
67146;SDS011;54061;52.036;5.558;2023-04-24T12:20:07;4.53;;;1.20;;
67146;SDS011;54061;52.036;5.558;2023-04-24T12:22:43;3.53;;;1.10;;
67146;SDS011;54061;52.036;5.558;2023-04-24T12:25:19;2.22;;;0.80;;
67146;SDS011;54061;52.036;5.558;2023-04-24T12:27:51;5.28;;;1.10;;
67146;SDS011;54061;52.036;5.558;2023-04-24T12:30:40;3.53;;;0.80;;
67146;SDS011;54061;52.036;5.558;2023-04-24T12:33:09;1.73;;;0.77;;
67146;SDS011;54061;52.036;5.558;2023-04-24T12:35:34;1.40;;;0.60;;
67146;SDS011;54061;52.036;5.558;2023-04-24T12:38:07;1.60;;;1.00;;
67146;SDS011;54061;52.036;5.558;2023-04-24T12:40:34;3.08;;;0.68;;
67146;SDS011;54061;52.036;5.558;2023-04-24T12:43:00;1.85;;;0.85;;
67146;SDS011;54061;52.036;5.558;2023-04-24T12:45:26;2.00;;;0.70;;
67146;SDS011;54061;52.036;5.558;2023-04-24T12:47:52;3.33;;;0.80;;
67146;SDS011;54061;52.036;5.558;2023-04-24T12:50:18;3.03;;;0.95;;
67146;SDS011;54061;52.036;5.558;2023-04-24T12:52:44;1.60;;;0.77;;
67146;SDS011;54061;52.036;5.558;2023-04-24T12:55:10;1.77;;;0.73;;
67146;SDS011;54061;52.036;5.558;2023-04-24T12:57:37;3.50;;;0.63;;
67146;SDS011;54061;52.036;5.558;2023-04-24T13:00:04;2.40;;;0.65;;
67146;SDS011;54061;52.036;5.558;2023-04-24T13:02:31;1.50;;;0.80;;
67146;SDS011;54061;52.036;5.558;2023-04-24T13:04:57;1.42;;;0.70;;
67146;SDS011;54061;52.036;5.558;2023-04-24T13:07:23;1.27;;;0.75;;
67146;SDS011;54061;52.036;5.558;2023-04-24T13:09:50;2.25;;;1.13;;
67146;SDS011;54061;52.036;5.558;2023-04-24T13:12:16;1.58;;;0.60;;
67146;SDS011;54061;52.036;5.558;2023-04-24T13:14:42;1.63;;;0.70;;
67146;SDS011;54061;52.036;5.558;2023-04-24T13:17:08;1.35;;;0.70;;
67146;SDS011;54061;52.036;5.558;2023-04-24T13:19:37;2.20;;;0.65;;
67146;SDS011;54061;52.036;5.558;2023-04-24T13:22:04;1.58;;;0.75;;
67146;SDS011;54061;52.036;5.558;2023-04-24T13:24:30;1.27;;;0.68;;
67146;SDS011;54061;52.036;5.558;2023-04-24T13:26:56;1.65;;;0.60;;
67146;SDS011;54061;52.036;5.558;2023-04-24T13:29:23;0.70;;;0.60;;
67146;SDS011;54061;52.036;5.558;2023-04-24T13:31:51;2.72;;;0.60;;
67146;SDS011;54061;52.036;5.558;2023-04-24T13:34:19;1.83;;;0.70;;
67146;SDS011;54061;52.036;5.558;2023-04-24T13:36:45;3.67;;;0.80;;
67146;SDS011;54061;52.036;5.558;2023-04-24T13:39:11;6.95;;;0.73;;
67146;SDS011;54061;52.036;5.558;2023-04-24T13:41:37;4.28;;;1.10;;
67146;SDS011;54061;52.036;5.558;2023-04-24T13:44:02;1.25;;;0.80;;
67146;SDS011;54061;52.036;5.558;2023-04-24T13:46:29;2.28;;;0.70;;
67146;SDS011;54061;52.036;5.558;2023-04-24T13:48:55;2.58;;;0.98;;
67146;SDS011;54061;52.036;5.558;2023-04-24T13:51:21;1.27;;;0.80;;
67146;SDS011;54061;52.036;5.558;2023-04-24T13:53:47;1.23;;;0.90;;
67146;SDS011;54061;52.036;5.558;2023-04-24T13:56:13;2.17;;;0.80;;
67146;SDS011;54061;52.036;5.558;2023-04-24T13:58:39;2.08;;;0.70;;
67146;SDS011;54061;52.036;5.558;2023-04-24T14:01:04;0.55;;;0.50;;
67146;SDS011;54061;52.036;5.558;2023-04-24T14:03:30;2.45;;;1.00;;
67146;SDS011;54061;52.036;5.558;2023-04-24T14:05:56;0.95;;;0.70;;
67146;SDS011;54061;52.036;5.558;2023-04-24T14:08:22;4.63;;;1.00;;
67146;SDS011;54061;52.036;5.558;2023-04-24T14:10:48;2.75;;;1.05;;
67146;SDS011;54061;52.036;5.558;2023-04-24T14:13:13;1.45;;;0.73;;
67146;SDS011;54061;52.036;5.558;2023-04-24T14:15:39;2.13;;;0.85;;
67146;SDS011;54061;52.036;5.558;2023-04-24T14:18:05;4.80;;;1.05;;
67146;SDS011;54061;52.036;5.558;2023-04-24T14:20:30;3.05;;;1.00;;
67146;SDS011;54061;52.036;5.558;2023-04-24T14:22:56;4.22;;;1.27;;
67146;SDS011;54061;52.036;5.558;2023-04-24T14:25:25;4.07;;;0.90;;
67146;SDS011;54061;52.036;5.558;2023-04-24T14:27:51;3.72;;;0.82;;
67146;SDS011;54061;52.036;5.558;2023-04-24T14:30:17;3.35;;;0.95;;
67146;SDS011;54061;52.036;5.558;2023-04-24T14:32:43;2.55;;;1.00;;
67146;SDS011;54061;52.036;5.558;2023-04-24T14:35:09;3.35;;;1.00;;
67146;SDS011;54061;52.036;5.558;2023-04-24T14:37:34;5.32;;;1.17;;
67146;SDS011;54061;52.036;5.558;2023-04-24T14:40:01;2.40;;;0.70;;
67146;SDS011;54061;52.036;5.558;2023-04-24T14:42:26;2.70;;;1.10;;
67146;SDS011;54061;52.036;5.558;2023-04-24T14:44:53;3.92;;;1.38;;
67146;SDS011;54061;52.036;5.558;2023-04-24T14:47:19;2.42;;;1.00;;
67146;SDS011;54061;52.036;5.558;2023-04-24T14:49:46;1.80;;;0.98;;
67146;SDS011;54061;52.036;5.558;2023-04-24T14:52:12;2.67;;;1.00;;
67146;SDS011;54061;52.036;5.558;2023-04-24T14:54:38;3.42;;;0.93;;
67146;SDS011;54061;52.036;5.558;2023-04-24T14:57:03;4.05;;;1.00;;
67146;SDS011;54061;52.036;5.558;2023-04-24T14:59:29;4.45;;;1.00;;
67146;SDS011;54061;52.036;5.558;2023-04-24T15:01:56;1.20;;;0.93;;